Arlington Heights, IL (60004)

4:28 AM CDT on August 28, 2015 (GMT -0500)
Arlington Heights Historical District | | Change Station
CLOSE
Current Station
Personal Weather Station
Location: Arlington Heights, IL
Elevation: 722 ft
Nearby Weather Stations

Elev 722 ft 42.09 °N, 87.99 °W | Updated 22 seconds ago

Clear
Clear
54.5 °F
Feels Like 54.5 °F
N
0.0
Wind Variable Wind from West
Gusts 0.0 mph

Today
High -- | Low -- °F
--% Chance of Precip.
Yesterday
High -- | Low -- °F
Precip. -- in
6:12 AM 7:32 PM
Waxing Gibbous, 97% visible
Pressure 30.13 in
Visibility 7.0 miles
Clouds Clear
Dew Point 54 °F
Humidity 97%
Rainfall 0.00 in
Snow Depth Not available.
UV 0 out of 12
Pollen 9.00 out of 12
Air Quality Not available.
Flu Activity Not available.
METAR KPWK 280852Z AUTO 00000KT 7SM CLR 13/11 A3013 RMK AO2 SLP201 T01330111 56007
Pressure 30.13 in
Visibility 7.0 miles
Clouds Clear
Dew Point 54 °F
Humidity 97%
Rainfall 0.00 in
Snow Depth Not available.
UV 0 out of 12
Pollen 9.00 out of 12
Air Quality Not available.
Flu Activity Not available.
METAR KPWK 280852Z AUTO 00000KT 7SM CLR 13/11 A3013 RMK AO2 SLP201 T01330111 56007

10-Day Weather Forecast

×

Almanac

Astronomy

Aug. 28, 2015 Rise Set
Actual Time
Civil Twilight
Nautical Twilight
Astronomical Twilight
Moon
Length of Visible Light
Length of Day
Tomorrow will be .
, % of the Moon is Illuminated

Today's Extremes

State Highs State Lows

Community

WunderPhotos

Upload Photos

1,850,352 photos uploaded!

WunderBlogs® & News

Nearby

Air Quality

  Air Quality AQ Index Pollutant
Not available.

Snow Depth

Station Depth Elevation

Earthquake Activity

City Distance Mag. Time & Date
Minimum magnitude displayed is 2.5.

Coastal Water Temperatures

Place Temperature

Stations

Nearby Weather Stations

Station Location Temp. Windchill Dew Point Humidity Wind Precip. Elev Updated Type